Time;durP1;ratioP1;P1;durP2;ratioP2;P2;SDS_P1;SDS_P2;PMS_P1;PMS_P2;Temp;Humidity;BMP_temperature;BMP_pressure;BME280_temperature;BME280_humidity;BME280_pressure;Samples;Min_cycle;Max_cycle;Signal;HPM_P1;HPM_P2
2024/03/22 06:46:00;;;;;;;31.43;16.57;;;;;;;8.54;100.00;100836.06;4853575;29;20053;-91
2024/03/22 06:48:26;;;;;;;31.87;17.20;;;;;;;8.60;100.00;100829.88;4844136;29;20467;-91
2024/03/22 06:50:53;;;;;;;29.00;16.23;;;;;;;8.65;100.00;100830.69;4813295;29;20050;-90
2024/03/22 06:53:19;;;;;;;28.37;16.20;;;;;;;8.69;100.00;100827.13;4828670;29;20413;-91
2024/03/22 06:55:45;;;;;;;31.30;15.17;;;;;;;8.73;100.00;100821.81;4829082;29;20046;-90
2024/03/22 06:58:11;;;;;;;36.83;16.67;;;;;;;8.83;100.00;100817.34;4829226;29;20061;-91
2024/03/22 07:00:37;;;;;;;30.13;15.53;;;;;;;8.87;100.00;100811.13;4829688;29;20106;-91
2024/03/22 07:03:05;;;;;;;33.00;16.13;;;;;;;8.99;100.00;100810.13;4799807;29;20050;-90
2024/03/22 07:05:31;;;;;;;31.87;16.53;;;;;;;8.93;100.00;100818.97;4833853;29;20046;-92
2024/03/22 07:07:57;;;;;;;30.37;15.40;;;;;;;9.02;100.00;100813.59;4806092;29;20050;-90
2024/03/22 07:10:27;;;;;;;30.73;15.30;;;;;;;9.06;100.00;100805.66;4814213;29;20418;-91
2024/03/22 07:12:57;;;;;;;30.17;16.03;;;;;;;9.08;100.00;100815.31;4831124;29;20135;-91
2024/03/22 07:15:23;;;;;;;29.90;16.60;;;;;;;9.10;100.00;100823.19;4829974;29;20057;-90
2024/03/22 07:17:50;;;;;;;33.37;15.60;;;;;;;9.07;100.00;100824.06;4822832;29;20465;-91
2024/03/22 07:20:18;;;;;;;31.50;16.17;;;;;;;9.06;100.00;100830.25;4847986;29;20041;-91
2024/03/22 07:22:44;;;;;;;30.07;17.20;;;;;;;8.96;100.00;100833.88;4847262;29;20057;-92
2024/03/22 07:25:11;;;;;;;33.90;17.13;;;;;;;9.01;100.00;100832.94;4816733;29;20055;-91
2024/03/22 07:27:37;;;;;;;29.50;16.40;;;;;;;8.98;100.00;100825.06;4861967;29;20041;-90
2024/03/22 07:30:04;;;;;;;31.90;17.48;;;;;;;8.98;100.00;100821.53;4831306;29;20049;-90
2024/03/22 07:32:31;;;;;;;32.07;17.37;;;;;;;9.00;100.00;100827.69;4816035;29;20528;-89
2024/03/22 07:34:58;;;;;;;33.17;18.03;;;;;;;9.04;100.00;100813.59;4856888;29;20053;-91
2024/03/22 07:37:24;;;;;;;28.47;15.57;;;;;;;9.05;100.00;100811.81;4825445;29;20049;-91
2024/03/22 07:39:50;;;;;;;30.02;15.80;;;;;;;9.02;100.00;100818.88;4797373;29;20102;-91
2024/03/22 07:42:17;;;;;;;32.05;16.15;;;;;;;9.05;100.00;100812.69;4828234;29;20421;-91
2024/03/22 07:44:43;;;;;;;30.90;16.42;;;;;;;9.13;100.00;100820.50;4829616;29;20498;-90
2024/03/22 07:47:09;;;;;;;29.93;16.03;;;;;;;9.12;100.00;100819.63;4819849;29;20041;-91
2024/03/22 07:49:36;;;;;;;28.77;15.25;;;;;;;9.11;100.00;100817.03;4815720;29;20521;-90
2024/03/22 07:52:02;;;;;;;32.03;16.15;;;;;;;9.27;100.00;100805.41;4832777;29;20041;-90
2024/03/22 07:54:28;;;;;;;28.47;15.10;;;;;;;9.30;100.00;100815.91;4827620;29;20049;-91
2024/03/22 07:56:54;;;;;;;28.17;14.43;;;;;;;9.33;100.00;100789.47;4842845;29;20049;-91
2024/03/22 07:59:21;;;;;;;30.92;15.35;;;;;;;9.35;100.00;100792.13;4843004;29;20054;-90
2024/03/22 08:01:47;;;;;;;26.58;15.75;;;;;;;9.37;100.00;100787.69;4812031;29;20046;-91
2024/03/22 08:04:13;;;;;;;29.95;15.52;;;;;;;9.31;100.00;100786.00;4843022;29;20125;-91
2024/03/22 08:06:39;;;;;;;28.65;15.07;;;;;;;9.32;100.00;100790.38;4797157;29;20518;-91
2024/03/22 08:09:05;;;;;;;28.65;14.32;;;;;;;9.31;100.00;100776.31;4816569;29;20144;-92
2024/03/22 08:11:31;;;;;;;24.20;14.30;;;;;;;9.40;100.00;100770.03;4817478;29;20045;-91
2024/03/22 08:14:02;;;;;;;29.73;15.00;;;;;;;9.37;100.00;100774.50;4849202;29;20054;-91
2024/03/22 08:16:30;;;;;;;28.00;14.80;;;;;;;9.42;100.00;100762.13;4823292;29;20073;-91
2024/03/22 08:18:56;;;;;;;30.25;16.50;;;;;;;9.52;100.00;100763.75;4861503;29;20498;-92
2024/03/22 08:21:23;;;;;;;29.63;15.38;;;;;;;9.64;100.00;100765.31;4846641;29;20052;-91
2024/03/22 08:23:50;;;;;;;27.50;15.18;;;;;;;9.57;100.00;100765.41;4834058;29;20037;-92
2024/03/22 08:26:17;;;;;;;29.77;16.27;;;;;;;9.59;100.00;100761.00;4834298;29;20037;-90
2024/03/22 08:28:44;;;;;;;29.30;14.73;;;;;;;9.71;100.00;100759.06;4818937;29;20053;-91
2024/03/22 08:31:10;;;;;;;29.95;17.60;;;;;;;9.76;100.00;100746.69;4834063;29;20045;-91
2024/03/22 08:33:36;;;;;;;31.38;16.17;;;;;;;9.72;100.00;100744.97;4880212;29;20041;-91
2024/03/22 08:36:02;;;;;;;31.35;17.27;;;;;;;9.82;100.00;100744.78;4820248;29;20056;-91
2024/03/22 08:38:28;;;;;;;27.15;14.73;;;;;;;9.88;100.00;100746.47;4887916;29;20432;-90
2024/03/22 08:40:54;;;;;;;27.80;16.58;;;;;;;9.94;100.00;100733.19;4849247;29;20037;-91
2024/03/22 08:43:22;;;;;;;27.15;14.00;;;;;;;9.96;100.00;100727.88;4864640;29;20068;-91
2024/03/22 08:45:48;;;;;;;27.50;15.93;;;;;;;10.14;100.00;100714.34;4843676;29;20085;-92
2024/03/22 08:48:14;;;;;;;26.80;16.50;;;;;;;10.27;100.00;100718.56;4859970;29;20049;-91
2024/03/22 08:50:47;;;;;;;32.85;17.40;;;;;;;10.43;100.00;100719.16;4845634;29;20422;-92
2024/03/22 08:53:13;;;;;;;28.02;15.73;;;;;;;10.53;100.00;100709.28;4801063;29;20469;-91
2024/03/22 08:55:45;;;;;;;33.20;17.08;;;;;;;10.64;99.14;100702.00;4801066;29;20049;-91
2024/03/22 08:58:12;;;;;;;31.17;16.23;;;;;;;10.62;97.23;100709.09;4815035;29;20069;-91
2024/03/22 09:00:38;;;;;;;27.63;16.70;;;;;;;10.66;98.43;100702.84;4847056;29;20050;-91
2024/03/22 09:03:04;;;;;;;28.00;16.08;;;;;;;10.75;99.14;100700.00;4802832;29;20093;-93
2024/03/22 09:05:31;;;;;;;29.60;16.70;;;;;;;10.85;97.73;100693.66;4799437;29;20100;-92
2024/03/22 09:07:57;;;;;;;29.92;17.77;;;;;;;10.93;98.17;100688.16;4847376;29;20073;-92
2024/03/22 09:10:23;;;;;;;27.33;15.02;;;;;;;11.00;95.85;100698.59;4816577;29;20037;-90
2024/03/22 09:12:49;;;;;;;28.63;16.13;;;;;;;10.99;95.52;100696.84;4832052;29;20056;-91
2024/03/22 09:15:15;;;;;;;31.65;16.75;;;;;;;10.97;95.00;100689.84;4831813;29;20056;-91
2024/03/22 09:17:41;;;;;;;29.45;16.55;;;;;;;10.86;94.10;100686.59;4819689;29;20053;-93
2024/03/22 09:20:09;;;;;;;31.70;18.48;;;;;;;10.95;94.68;100686.38;4832204;29;20053;-91
2024/03/22 09:22:35;;;;;;;30.00;16.60;;;;;;;11.03;95.09;100683.56;4816956;29;20053;-93
2024/03/22 09:25:01;;;;;;;30.92;17.00;;;;;;;11.02;94.72;100677.41;4817720;29;20052;-92
2024/03/22 09:27:27;;;;;;;32.92;16.63;;;;;;;10.94;93.05;100674.94;4860908;29;20052;-91
2024/03/22 09:29:53;;;;;;;26.80;15.77;;;;;;;11.00;93.38;100673.91;4847108;29;20467;-91
2024/03/22 09:32:19;;;;;;;32.22;17.05;;;;;;;10.97;94.90;100663.44;4815632;29;20398;-93
2024/03/22 09:35:11;;;;;;;33.53;17.52;;;;;;;11.09;95.73;100675.50;4830603;23;20054;-89
2024/03/22 09:37:37;;;;;;;28.88;17.10;;;;;;;11.14;94.62;100673.63;4830665;29;20041;-89
2024/03/22 09:40:07;;;;;;;28.05;16.40;;;;;;;11.18;93.02;100668.25;4845436;29;20049;-89
2024/03/22 09:42:33;;;;;;;32.72;17.77;;;;;;;11.24;93.55;100668.09;4831147;29;20352;-89
2024/03/22 09:45:00;;;;;;;31.10;17.50;;;;;;;11.30;94.58;100655.63;4830657;29;20053;-89
2024/03/22 09:47:27;;;;;;;31.42;16.58;;;;;;;11.33;93.55;100648.47;4831349;29;20045;-91
2024/03/22 09:49:54;;;;;;;33.90;17.80;;;;;;;11.48;93.49;100652.53;4831063;29;20551;-91
2024/03/22 09:52:20;;;;;;;31.88;18.25;;;;;;;11.59;92.53;100657.56;4830440;29;20057;-93
2024/03/22 09:54:46;;;;;;;31.00;17.15;;;;;;;11.77;93.11;100646.50;4845665;29;20596;-91
2024/03/22 09:57:16;;;;;;;31.10;17.45;;;;;;;11.97;91.55;100638.97;4830290;29;20100;-91
2024/03/22 09:59:43;;;;;;;31.05;16.15;;;;;;;12.16;89.60;100633.19;4829929;29;20049;-90
2024/03/22 10:02:12;;;;;;;32.33;17.73;;;;;;;12.42;87.68;100633.31;4848222;29;20436;-90
2024/03/22 10:04:41;;;;;;;29.67;17.70;;;;;;;12.55;87.26;100625.91;4834222;29;20072;-91
2024/03/22 10:07:09;;;;;;;30.17;17.40;;;;;;;12.50;85.28;100626.00;4864417;29;20048;-92
2024/03/22 10:09:35;;;;;;;29.02;17.00;;;;;;;12.54;86.89;100608.25;4849186;29;20068;-91
2024/03/22 10:12:01;;;;;;;29.05;17.25;;;;;;;12.54;86.53;100610.91;4833965;29;20104;-90
2024/03/22 10:14:30;;;;;;;28.95;16.55;;;;;;;12.49;84.83;100605.72;4854968;29;20513;-93
2024/03/22 10:16:57;;;;;;;30.67;17.17;;;;;;;12.51;86.19;100613.63;4837501;29;20101;-90
2024/03/22 10:19:23;;;;;;;31.88;16.90;;;;;;;12.59;86.51;100623.09;4833836;29;20113;-90
2024/03/22 10:22:03;;;;;;;30.60;16.92;;;;;;;12.59;84.62;100617.78;4835922;29;20037;-91
2024/03/22 10:24:29;;;;;;;27.58;16.92;;;;;;;12.60;85.08;100624.81;4848882;29;20045;-90
2024/03/22 10:26:56;;;;;;;30.33;17.58;;;;;;;12.54;84.67;100627.69;4848409;29;20049;-89
2024/03/22 10:29:22;;;;;;;30.08;17.67;;;;;;;12.29;84.49;100616.03;4818660;29;20045;-90
2024/03/22 10:31:51;;;;;;;27.67;16.92;;;;;;;12.24;84.72;100625.88;4833667;29;20403;-92
2024/03/22 10:34:18;;;;;;;29.17;17.73;;;;;;;12.21;86.92;100615.38;4849229;29;20049;-91
2024/03/22 10:36:44;;;;;;;32.28;16.73;;;;;;;12.23;87.61;100619.72;4848951;29;20131;-90
2024/03/22 10:39:17;;;;;;;29.17;16.95;;;;;;;12.29;87.01;100608.97;4818719;29;20045;-90
2024/03/22 10:41:47;;;;;;;27.52;17.42;;;;;;;12.42;87.65;100603.31;4833567;29;20045;-89
2024/03/22 10:44:14;;;;;;;27.30;16.92;;;;;;;12.41;88.17;100607.72;4848873;29;20060;-91
2024/03/22 10:46:47;;;;;;;35.53;18.08;;;;;;;12.50;86.58;100612.75;4848976;29;20214;-90
2024/03/22 10:49:16;;;;;;;33.72;18.52;;;;;;;12.51;86.81;100603.91;4818055;29;20512;-91
2024/03/22 10:51:57;;;;;;;30.80;17.10;;;;;;;12.53;86.03;100596.78;4863589;29;20436;-90
2024/03/22 10:54:26;;;;;;;31.50;17.35;;;;;;;12.56;85.41;100593.19;4818141;29;20049;-90
2024/03/22 10:56:52;;;;;;;31.23;17.85;;;;;;;12.40;86.13;100592.75;4833357;29;20045;-89
2024/03/22 10:59:19;;;;;;;33.22;19.10;;;;;;;12.29;87.24;100586.91;4848043;29;20056;-90
2024/03/22 11:01:46;;;;;;;32.60;17.85;;;;;;;12.29;87.25;100579.81;4817938;29;20474;-90
2024/03/22 11:04:15;;;;;;;31.63;16.60;;;;;;;12.24;88.16;100573.78;4847995;29;20049;-91
2024/03/22 11:06:42;;;;;;;30.45;17.27;;;;;;;12.21;87.45;100576.53;4833046;29;20595;-89
2024/03/22 11:09:08;;;;;;;31.67;17.77;;;;;;;12.11;88.31;100577.72;4833046;29;20105;-91
2024/03/22 11:11:38;;;;;;;31.20;18.33;;;;;;;12.06;88.38;100579.59;4847753;29;20045;-92
2024/03/22 11:14:04;;;;;;;29.60;17.50;;;;;;;12.01;90.92;100576.19;4849239;29;20054;-92
2024/03/22 11:16:30;;;;;;;33.25;17.13;;;;;;;12.00;91.60;100569.16;4833308;29;20048;-91
2024/03/22 11:18:57;;;;;;;30.50;17.67;;;;;;;12.02;92.58;100565.59;4833187;29;20045;-92
2024/03/22 11:21:23;;;;;;;33.53;18.25;;;;;;;12.01;93.29;100571.78;4847074;29;20041;-91
2024/03/22 11:23:49;;;;;;;26.73;16.67;;;;;;;12.04;93.89;100560.25;4834994;29;20169;-92
2024/03/22 11:26:15;;;;;;;30.88;18.63;;;;;;;12.01;95.10;100562.97;4849804;29;20053;-92
2024/03/22 11:28:42;;;;;;;32.55;18.15;;;;;;;12.08;96.66;100562.75;4833634;29;20128;-92
2024/03/22 11:31:09;;;;;;;32.05;17.63;;;;;;;12.13;96.15;100551.19;4818682;29;20045;-90
2024/03/22 11:33:35;;;;;;;33.25;17.98;;;;;;;12.15;96.02;100552.84;4848594;29;20049;-92
2024/03/22 11:36:02;;;;;;;29.80;17.83;;;;;;;12.14;97.08;100545.81;4833066;29;20409;-91
2024/03/22 11:38:30;;;;;;;34.70;19.88;;;;;;;12.18;96.62;100543.94;4863057;29;20523;-91
2024/03/22 11:40:58;;;;;;;33.78;19.77;;;;;;;12.27;96.85;100541.03;4832598;29;20048;-91
2024/03/22 11:43:24;;;;;;;31.67;17.02;;;;;;;12.35;99.27;100539.88;4850724;29;20075;-89
2024/03/22 11:45:50;;;;;;;34.08;19.75;;;;;;;12.38;96.59;100538.94;4836483;29;20055;-89
2024/03/22 11:48:17;;;;;;;33.10;18.35;;;;;;;12.47;97.93;100529.84;4864537;29;20100;-90
2024/03/22 11:50:45;;;;;;;33.35;18.42;;;;;;;12.54;95.97;100524.31;4848713;29;20092;-91
2024/03/22 11:53:12;;;;;;;28.13;17.60;;;;;;;12.56;95.42;100525.13;4849291;29;20053;-90
2024/03/22 11:55:39;;;;;;;34.88;19.70;;;;;;;12.57;94.62;100524.22;4848562;29;20053;-91
2024/03/22 11:58:05;;;;;;;32.53;18.73;;;;;;;12.73;95.98;100514.00;4848355;29;20065;-90
2024/03/22 12:00:31;;;;;;;33.80;18.45;;;;;;;12.80;92.21;100523.50;4833283;29;20041;-89
2024/03/22 12:02:57;;;;;;;33.25;18.20;;;;;;;12.90;92.29;100506.38;4848129;29;20049;-89
2024/03/22 12:05:24;;;;;;;28.58;17.55;;;;;;;12.99;92.55;100504.34;4832917;29;20063;-89
2024/03/22 12:07:54;;;;;;;28.88;16.23;;;;;;;12.96;91.71;100500.03;4833146;29;20505;-88
2024/03/22 12:10:20;;;;;;;30.27;17.20;;;;;;;12.97;91.92;100504.41;4848056;29;20037;-88
2024/03/22 12:12:46;;;;;;;32.17;17.50;;;;;;;12.91;91.25;100494.84;4818040;29;20048;-89
2024/03/22 12:15:12;;;;;;;30.50;18.38;;;;;;;12.90;92.38;100492.25;4832277;29;20037;-88
2024/03/22 12:17:39;;;;;;;31.52;17.38;;;;;;;12.82;92.17;100487.22;4833130;29;20053;-88
2024/03/22 12:20:09;;;;;;;30.05;17.90;;;;;;;12.74;93.37;100486.59;4832818;29;20049;-88
2024/03/22 12:22:35;;;;;;;34.80;19.83;;;;;;;12.62;93.50;100490.50;4834713;29;20322;-91
2024/03/22 12:25:02;;;;;;;29.83;16.88;;;;;;;12.62;93.65;100484.34;4848777;29;20108;-89
2024/03/22 12:27:28;;;;;;;33.65;18.27;;;;;;;12.60;93.25;100486.16;4818198;29;20053;-89
2024/03/22 12:29:54;;;;;;;30.50;16.73;;;;;;;12.53;95.11;100480.19;4847186;29;20093;-89
2024/03/22 12:32:21;;;;;;;30.40;18.10;;;;;;;12.47;94.04;100471.56;4816251;29;20064;-90
2024/03/22 12:34:47;;;;;;;31.85;19.05;;;;;;;12.45;95.60;100465.44;4830973;29;20423;-89
2024/03/22 12:37:13;;;;;;;26.73;17.23;;;;;;;12.33;96.78;100464.91;4846199;29;20049;-88
2024/03/22 12:39:40;;;;;;;31.73;16.58;;;;;;;12.23;98.52;100470.53;4845735;29;20052;-88
2024/03/22 12:42:06;;;;;;;32.45;18.40;;;;;;;12.25;98.71;100464.25;4830671;29;20043;-88
2024/03/22 12:44:32;;;;;;;28.77;17.45;;;;;;;12.17;99.60;100468.94;4846046;29;20049;-88
2024/03/22 12:46:58;;;;;;;33.88;19.48;;;;;;;12.12;100.00;100457.63;4830829;29;20049;-87
2024/03/22 12:49:25;;;;;;;33.42;18.15;;;;;;;12.07;100.00;100457.75;4851443;29;20049;-90
2024/03/22 12:51:51;;;;;;;36.53;21.05;;;;;;;11.98;100.00;100450.06;4869445;29;20452;-90
2024/03/22 12:54:18;;;;;;;31.23;19.33;;;;;;;11.95;100.00;100455.47;4867972;29;20029;-88
2024/03/22 12:56:45;;;;;;;34.35;20.52;;;;;;;11.85;100.00;100453.97;4837480;29;20057;-87
2024/03/22 12:59:12;;;;;;;31.20;18.08;;;;;;;11.79;100.00;100449.72;4830615;29;20048;-90
2024/03/22 13:01:38;;;;;;;33.83;20.13;;;;;;;11.72;100.00;100442.00;4830708;29;20049;-88
2024/03/22 13:04:04;;;;;;;33.53;19.20;;;;;;;11.74;100.00;100433.09;4861660;29;20059;-87
2024/03/22 13:06:30;;;;;;;36.30;19.70;;;;;;;11.71;100.00;100441.13;4845969;29;20055;-87
2024/03/22 13:08:57;;;;;;;37.60;19.55;;;;;;;11.60;100.00;100437.91;4846139;29;20096;-87
2024/03/22 13:11:40;;;;;;;29.17;17.15;;;;;;;11.64;100.00;100431.63;4846075;29;20052;-90
2024/03/22 13:14:06;;;;;;;33.28;18.58;;;;;;;11.66;100.00;100426.28;4876903;29;20045;-87
2024/03/22 13:16:33;;;;;;;31.55;17.73;;;;;;;11.63;100.00;100431.69;4845708;29;20071;-89
2024/03/22 13:18:59;;;;;;;32.15;17.63;;;;;;;11.62;100.00;100425.53;4845790;29;20052;-87
2024/03/22 13:21:32;;;;;;;32.85;18.15;;;;;;;11.61;100.00;100433.50;4830876;29;20056;-87
2024/03/22 13:23:59;;;;;;;30.08;17.52;;;;;;;11.52;100.00;100424.91;4845872;29;20652;-87
2024/03/22 13:26:25;;;;;;;28.58;17.38;;;;;;;11.46;100.00;100424.22;4830867;29;20101;-87
2024/03/22 13:28:51;;;;;;;29.75;17.02;;;;;;;11.45;100.00;100420.69;4845510;29;20045;-88
2024/03/22 13:31:17;;;;;;;30.48;17.33;;;;;;;11.44;100.00;100410.16;4871523;29;20049;-90
2024/03/22 13:33:47;;;;;;;30.02;17.50;;;;;;;11.42;100.00;100417.25;4830625;29;20093;-87
2024/03/22 13:36:15;;;;;;;31.98;18.35;;;;;;;11.36;100.00;100406.88;4830270;29;20262;-87
2024/03/22 13:38:42;;;;;;;29.55;16.38;;;;;;;11.27;100.00;100408.84;4845459;29;20273;-88
2024/03/22 13:41:11;;;;;;;29.10;16.15;;;;;;;11.20;100.00;100404.63;4815791;29;20109;-88
2024/03/22 13:43:40;;;;;;;27.73;17.60;;;;;;;11.23;100.00;100401.03;4845562;29;20512;-88
2024/03/22 13:46:06;;;;;;;32.13;16.55;;;;;;;11.16;100.00;100396.81;4830960;29;20052;-88
2024/03/22 13:48:32;;;;;;;30.35;16.17;;;;;;;11.17;100.00;100399.41;4830507;29;20044;-89
2024/03/22 13:51:01;;;;;;;31.17;17.35;;;;;;;11.18;100.00;100400.28;4845415;29;20045;-90
2024/03/22 13:53:27;;;;;;;30.88;17.50;;;;;;;11.14;100.00;100398.66;4830867;29;20064;-88
2024/03/22 13:55:53;;;;;;;35.58;17.65;;;;;;;11.18;100.00;100393.25;4830152;29;20093;-88
2024/03/22 13:58:19;;;;;;;34.00;17.40;;;;;;;11.17;100.00;100393.25;4860249;29;20064;-88
2024/03/22 14:00:49;;;;;;;30.27;17.88;;;;;;;11.22;100.00;100386.94;4814795;29;20041;-88
2024/03/22 14:03:19;;;;;;;28.10;15.98;;;;;;;11.16;100.00;100378.31;4845201;29;20056;-88
2024/03/22 14:05:45;;;;;;;31.23;16.95;;;;;;;11.17;100.00;100375.63;4844921;29;20108;-88
2024/03/22 14:08:11;;;;;;;27.17;16.25;;;;;;;11.18;100.00;100369.44;4860471;29;20071;-88
2024/03/22 14:10:37;;;;;;;29.92;17.13;;;;;;;11.19;100.00;100367.66;4830002;29;20049;-89
2024/03/22 14:13:07;;;;;;;26.77;15.80;;;;;;;11.24;100.00;100363.09;4829638;29;20053;-88
